Time,TemperatureF,DewpointF,PressureIn,WindDirection,WindDirectionDegrees,WindSpeedMPH,WindSpeedGustMPH,Humidity,HourlyPrecipIn,Conditions,Clouds,dailyrainin,SoftwareType,DateUTC
2013-01-08 00:00:00,14.9,-15.3,29.12,WSW,243,6.3,6.3,24,0.00,,,0.00,LWC V2.00 B2112,2013-01-08 05:00:00,
2013-01-08 00:05:00,15.1,-15.1,29.12,NE,40,7.2,7.6,24,0.00,,,0.00,LWC V2.00 B2112,2013-01-08 05:05:00,
2013-01-08 00:10:00,14.9,-15.3,29.12,SW,214,3.1,4.0,24,0.00,,,0.00,LWC V2.00 B2112,2013-01-08 05:10:00,
2013-01-08 00:15:00,14.9,-15.3,29.09,South,180,4.0,7.2,24,0.00,,,0.00,LWC V2.00 B2112,2013-01-08 05:15:00,
2013-01-08 00:20:00,14.9,-15.3,29.09,SW,214,6.3,6.3,24,0.00,,,0.00,LWC V2.00 B2112,2013-01-08 05:20:00,
2013-01-08 00:25:00,14.9,-15.3,29.09,ENE,61,5.4,5.8,24,0.00,,,0.00,LWC V2.00 B2112,2013-01-08 05:25:00,
2013-01-08 00:30:00,14.9,-15.3,29.12,East,101,4.0,7.6,24,0.00,,,0.00,LWC V2.00 B2112,2013-01-08 05:30:00,
2013-01-08 00:35:00,14.9,-15.3,29.12,NE,47,4.0,7.2,24,0.00,,,0.00,LWC V2.00 B2112,2013-01-08 05:35:00,
2013-01-08 00:40:00,15.1,-15.1,29.12,SE,146,4.0,7.6,24,0.00,,,0.00,LWC V2.00 B2112,2013-01-08 05:40:00,
2013-01-08 00:45:00,15.4,-14.8,29.12,NNE,24,3.1,7.6,24,0.00,,,0.00,LWC V2.00 B2112,2013-01-08 05:45:00,
2013-01-08 00:50:00,16.0,-15.2,29.12,NE,51,2.7,5.4,23,0.00,,,0.00,LWC V2.00 B2112,2013-01-08 05:50:00,
2013-01-08 00:56:00,17.1,-14.3,29.12,East,80,4.5,6.3,23,0.00,,,0.00,LWC V2.00 B2112,2013-01-08 05:56:00,
2013-01-08 01:01:00,17.4,-14.0,29.12,ENE,66,6.3,6.3,23,0.00,,,0.00,LWC V2.00 B2112,2013-01-08 06:01:00,
2013-01-08 01:06:00,17.4,-14.0,29.12,ENE,62,2.2,3.6,23,0.00,,,0.00,LWC V2.00 B2112,2013-01-08 06:06:00,
2013-01-08 01:11:00,19.6,-13.0,29.12,SW,230,4.9,4.9,22,0.00,,,0.00,LWC V2.00 B2112,2013-01-08 06:11:00,
2013-01-08 01:16:00,19.4,-12.3,29.12,ESE,114,3.6,7.6,23,0.00,,,0.00,LWC V2.00 B2112,2013-01-08 06:16:00,
2013-01-08 01:21:00,19.9,-12.7,29.12,ENE,72,5.8,7.2,22,0.00,,,0.00,LWC V2.00 B2112,2013-01-08 06:21:00,
2013-01-08 01:26:00,18.5,-13.0,29.12,East,81,6.3,6.3,23,0.00,,,0.00,LWC V2.00 B2112,2013-01-08 06:26:00,
2013-01-08 01:31:00,20.1,-12.6,29.12,NNE,27,4.0,5.8,22,0.00,,,0.00,LWC V2.00 B2112,2013-01-08 06:31:00,
2013-01-08 01:36:00,23.4,-9.8,29.12,SSE,149,4.9,6.7,22,0.00,,,0.00,LWC V2.00 B2112,2013-01-08 06:36:00,
2013-01-08 01:41:00,22.8,-10.3,29.09,North,0,5.4,8.3,22,0.00,,,0.00,LWC V2.00 B2112,2013-01-08 06:41:00,
2013-01-08 01:46:00,22.5,-10.6,29.09,SE,130,3.6,7.2,22,0.00,,,0.00,LWC V2.00 B2112,2013-01-08 06:46:00,
2013-01-08 01:51:00,24.1,-9.2,29.09,WSW,248,3.1,5.4,22,0.00,,,0.00,LWC V2.00 B2112,2013-01-08 06:51:00,
2013-01-08 01:56:00,27.5,-7.2,29.12,SE,136,2.7,5.8,21,0.00,,,0.00,LWC V2.00 B2112,2013-01-08 06:56:00,
2013-01-08 02:01:00,29.3,-6.7,29.12,ESE,106,6.7,6.7,20,0.00,,,0.00,LWC V2.00 B2112,2013-01-08 07:01:00,
2013-01-08 02:06:00,29.7,-6.4,29.12,SE,139,8.3,8.3,20,0.00,,,0.00,LWC V2.00 B2112,2013-01-08 07:06:00,
2013-01-08 02:11:00,31.1,-5.2,29.09,ESE,112,3.1,3.1,20,0.00,,,0.00,LWC V2.00 B2112,2013-01-08 07:11:00,
2013-01-08 02:16:00,30.9,-5.4,29.09,South,190,0.0,8.1,20,0.00,,,0.00,LWC V2.00 B2112,2013-01-08 07:16:00,
2013-01-08 02:21:00,30.4,-5.8,29.09,SE,132,5.8,8.7,20,0.00,,,0.00,LWC V2.00 B2112,2013-01-08 07:21:00,
2013-01-08 02:26:00,31.1,-5.2,29.12,East,97,4.9,6.3,20,0.00,,,0.00,LWC V2.00 B2112,2013-01-08 07:26:00,
2013-01-08 02:31:00,31.8,-4.6,29.12,North,11,3.1,3.1,20,0.00,,,0.00,LWC V2.00 B2112,2013-01-08 07:31:00,
2013-01-08 02:36:00,32.0,-4.5,29.12,East,82,3.1,5.8,20,0.00,,,0.00,LWC V2.00 B2112,2013-01-08 07:36:00,
2013-01-08 02:41:00,32.5,-4.0,29.09,ENE,78,9.6,10.1,20,0.00,,,0.00,LWC V2.00 B2112,2013-01-08 07:41:00,
2013-01-08 02:46:00,32.5,-4.0,29.09,South,174,4.0,7.6,20,0.00,,,0.00,LWC V2.00 B2112,2013-01-08 07:46:00,
2013-01-08 02:51:00,32.5,-4.0,29.09,SSW,208,4.0,4.0,20,0.00,,,0.00,LWC V2.00 B2112,2013-01-08 07:51:00,
2013-01-08 02:56:00,32.4,-4.2,29.12,SE,127,4.0,8.1,20,0.00,,,0.00,LWC V2.00 B2112,2013-01-08 07:56:00,
2013-01-08 03:01:00,32.5,-4.0,29.12,South,174,5.8,10.5,20,0.00,,,0.00,LWC V2.00 B2112,2013-01-08 08:01:00,
2013-01-08 03:06:00,32.7,-3.9,29.12,South,176,5.4,5.4,20,0.00,,,0.00,LWC V2.00 B2112,2013-01-08 08:06:00,
2013-01-08 03:11:00,32.7,-3.9,29.09,SSW,197,3.1,10.5,20,0.00,,,0.00,LWC V2.00 B2112,2013-01-08 08:11:00,
2013-01-08 03:16:00,32.5,-4.0,29.09,West,259,3.1,8.7,20,0.00,,,0.00,LWC V2.00 B2112,2013-01-08 08:16:00,
2013-01-08 03:21:00,32.4,-4.2,29.09,SSE,165,3.1,8.7,20,0.00,,,0.00,LWC V2.00 B2112,2013-01-08 08:21:00,
2013-01-08 03:26:00,32.4,-4.2,29.09,SE,142,6.3,6.3,20,0.00,,,0.00,LWC V2.00 B2112,2013-01-08 08:26:00,
2013-01-08 03:31:00,32.2,-4.3,29.09,SSW,193,8.1,8.1,20,0.00,,,0.00,LWC V2.00 B2112,2013-01-08 08:31:00,
2013-01-08 03:36:00,32.2,-4.3,29.09,ESE,108,3.1,6.3,20,0.00,,,0.00,LWC V2.00 B2112,2013-01-08 08:36:00,
2013-01-08 03:41:00,32.2,-4.3,29.09,WNW,288,2.7,3.6,20,0.00,,,0.00,LWC V2.00 B2112,2013-01-08 08:41:00,
2013-01-08 03:46:00,32.2,-4.3,29.09,SE,126,5.8,8.1,20,0.00,,,0.00,LWC V2.00 B2112,2013-01-08 08:46:00,
2013-01-08 03:51:00,32.0,-4.5,29.09,WSW,253,6.3,8.7,20,0.00,,,0.00,LWC V2.00 B2112,2013-01-08 08:51:00,
2013-01-08 03:56:00,32.0,-4.5,29.06,East,84,3.6,5.4,20,0.00,,,0.00,LWC V2.00 B2112,2013-01-08 08:56:00,
2013-01-08 04:01:00,31.6,-4.8,29.06,NE,34,3.6,5.4,20,0.00,,,0.00,LWC V2.00 B2112,2013-01-08 09:01:00,
2013-01-08 04:06:00,-999.0,-99.9,29.06,NNW,344,4.0,5.8,-999,0.00,,,0.00,LWC V2.00 B2112,2013-01-08 09:06:00,
2013-01-08 04:11:00,31.6,-4.8,29.06,NE,39,2.7,5.8,20,0.00,,,0.00,LWC V2.00 B2112,2013-01-08 09:11:00,
2013-01-08 04:16:00,31.1,-5.2,29.06,NE,49,4.9,4.9,20,0.00,,,0.00,LWC V2.00 B2112,2013-01-08 09:16:00,
2013-01-08 04:21:00,29.8,-6.3,29.06,SE,145,4.0,4.9,20,0.00,,,0.00,LWC V2.00 B2112,2013-01-08 09:21:00,
2013-01-08 04:26:00,30.2,-6.0,29.09,ENE,63,5.8,5.8,20,0.00,,,0.00,LWC V2.00 B2112,2013-01-08 09:26:00,
2013-01-08 04:31:00,29.7,-6.4,29.09,SE,143,2.2,4.9,20,0.00,,,0.00,LWC V2.00 B2112,2013-01-08 09:31:00,
2013-01-08 04:36:00,28.2,-6.6,29.09,SSW,202,4.0,4.0,21,0.00,,,0.00,LWC V2.00 B2112,2013-01-08 09:36:00,
2013-01-08 04:41:00,27.3,-7.4,29.09,NNE,33,5.4,5.8,21,0.00,,,0.00,LWC V2.00 B2112,2013-01-08 09:41:00,
2013-01-08 04:46:00,27.1,-7.6,29.09,ENE,68,2.7,2.7,21,0.00,,,0.00,LWC V2.00 B2112,2013-01-08 09:46:00,
2013-01-08 04:51:00,27.0,-7.7,29.09,ENE,73,3.6,6.3,21,0.00,,,0.00,LWC V2.00 B2112,2013-01-08 09:51:00,
2013-01-08 04:56:00,27.5,-7.2,29.09,NW,323,2.7,2.7,21,0.00,,,0.00,LWC V2.00 B2112,2013-01-08 09:56:00,
2013-01-08 05:01:00,27.3,-7.4,29.09,East,101,0.0,4.9,21,0.00,,,0.00,LWC V2.00 B2112,2013-01-08 10:01:00,
2013-01-08 05:06:00,27.9,-6.9,29.09,West,266,2.2,3.1,21,0.00,,,0.00,LWC V2.00 B2112,2013-01-08 10:06:00,
2013-01-08 05:11:00,-999.0,-99.9,29.09,SSE,166,2.7,4.0,-999,0.00,,,0.00,LWC V2.00 B2112,2013-01-08 10:11:00,
2013-01-08 05:16:00,28.0,-6.8,29.09,East,84,3.1,6.3,21,0.00,,,0.00,LWC V2.00 B2112,2013-01-08 10:16:00,
2013-01-08 05:21:00,28.6,-7.3,29.09,NNE,31,0.0,0.0,20,0.00,,,0.00,LWC V2.00 B2112,2013-01-08 10:21:00,
2013-01-08 05:26:00,29.1,-6.9,29.09,South,183,2.2,3.6,20,0.00,,,0.00,LWC V2.00 B2112,2013-01-08 10:26:00,
2013-01-08 05:31:00,28.9,-7.0,29.09,ENE,73,4.0,4.0,20,0.00,,,0.00,LWC V2.00 B2112,2013-01-08 10:31:00,
2013-01-08 05:36:00,28.6,-7.3,29.09,ESE,110,3.1,4.9,20,0.00,,,0.00,LWC V2.00 B2112,2013-01-08 10:36:00,
2013-01-08 05:41:00,27.9,-6.9,29.09,East,89,3.6,4.9,21,0.00,,,0.00,LWC V2.00 B2112,2013-01-08 10:41:00,
2013-01-08 05:46:00,28.6,-7.3,29.09,ESE,118,0.0,4.0,20,0.00,,,0.00,LWC V2.00 B2112,2013-01-08 10:46:00,
2013-01-08 05:51:00,28.8,-7.2,29.09,ENE,67,2.2,3.1,20,0.00,,,0.00,LWC V2.00 B2112,2013-01-08 10:51:00,
2013-01-08 05:56:00,28.9,-7.0,29.09,ESE,118,2.7,4.9,20,0.00,,,0.00,LWC V2.00 B2112,2013-01-08 10:56:00,
2013-01-08 06:02:00,28.9,-7.0,29.09,NE,48,2.7,4.5,20,0.00,,,0.00,LWC V2.00 B2112,2013-01-08 11:02:00,
2013-01-08 06:07:00,29.3,-6.7,29.09,East,82,0.0,5.4,20,0.00,,,0.00,LWC V2.00 B2112,2013-01-08 11:07:00,
2013-01-08 06:12:00,29.5,-6.6,29.09,ENE,62,4.0,4.0,20,0.00,,,0.00,LWC V2.00 B2112,2013-01-08 11:12:00,
2013-01-08 06:17:00,28.6,-7.3,29.09,NE,48,2.7,3.6,20,0.00,,,0.00,LWC V2.00 B2112,2013-01-08 11:17:00,
2013-01-08 06:22:00,28.0,-6.8,29.09,SSW,209,2.7,3.6,21,0.00,,,0.00,LWC V2.00 B2112,2013-01-08 11:22:00,
2013-01-08 06:27:00,26.2,-8.3,29.12,ENE,73,2.2,3.6,21,0.00,,,0.00,LWC V2.00 B2112,2013-01-08 11:27:00,
2013-01-08 06:32:00,26.6,-8.0,29.12,NE,55,3.1,4.0,21,0.00,,,0.00,LWC V2.00 B2112,2013-01-08 11:32:00,
2013-01-08 06:37:00,26.6,-8.0,29.12,NE,55,2.7,3.1,21,0.00,,,0.00,LWC V2.00 B2112,2013-01-08 11:37:00,
2013-01-08 06:42:00,26.4,-8.2,29.12,NE,51,3.6,4.9,21,0.00,,,0.00,LWC V2.00 B2112,2013-01-08 11:42:00,
2013-01-08 06:47:00,27.1,-7.6,29.12,SSE,168,3.1,3.6,21,0.00,,,0.00,LWC V2.00 B2112,2013-01-08 11:47:00,
2013-01-08 06:52:00,26.8,-7.9,29.12,North,10,3.6,4.0,21,0.00,,,0.00,LWC V2.00 B2112,2013-01-08 11:52:00,
2013-01-08 06:57:00,27.0,-7.7,29.12,SSW,195,2.7,6.3,21,0.00,,,0.00,LWC V2.00 B2112,2013-01-08 11:57:00,
2013-01-08 07:02:00,25.7,-8.8,29.12,ENE,61,2.7,3.6,21,0.00,,,0.00,LWC V2.00 B2112,2013-01-08 12:02:00,
2013-01-08 07:07:00,25.5,-8.9,29.12,NE,49,2.2,3.1,21,0.00,,,0.00,LWC V2.00 B2112,2013-01-08 12:07:00,
2013-01-08 07:12:00,26.4,-8.2,29.12,North,4,3.1,4.9,21,0.00,,,0.00,LWC V2.00 B2112,2013-01-08 12:12:00,
2013-01-08 07:17:00,25.9,-8.6,29.12,ESE,122,0.0,3.6,21,0.00,,,0.00,LWC V2.00 B2112,2013-01-08 12:17:00,
2013-01-08 07:22:00,25.2,-9.2,29.12,NNE,24,2.7,4.0,21,0.00,,,0.00,LWC V2.00 B2112,2013-01-08 12:22:00,
2013-01-08 07:27:00,24.4,-8.9,29.12,SSW,213,0.0,3.6,22,0.00,,,0.00,LWC V2.00 B2112,2013-01-08 12:27:00,
2013-01-08 07:32:00,25.0,-9.4,29.12,SW,217,0.0,3.6,21,0.00,,,0.00,LWC V2.00 B2112,2013-01-08 12:32:00,
2013-01-08 07:37:00,27.0,-7.7,29.12,SSE,165,2.2,4.0,21,0.00,,,0.00,LWC V2.00 B2112,2013-01-08 12:37:00,
2013-01-08 07:42:00,28.0,-6.8,29.12,ENE,77,0.0,4.9,21,0.00,,,0.00,LWC V2.00 B2112,2013-01-08 12:42:00,
2013-01-08 07:47:00,28.0,-6.8,29.12,NE,41,3.1,4.0,21,0.00,,,0.00,LWC V2.00 B2112,2013-01-08 12:47:00,
2013-01-08 07:52:00,27.5,-7.2,29.12,North,4,2.2,4.0,21,0.00,,,0.00,LWC V2.00 B2112,2013-01-08 12:52:00,
2013-01-08 07:57:00,27.3,-7.4,29.15,NNE,25,3.1,4.9,21,0.00,,,0.00,LWC V2.00 B2112,2013-01-08 12:57:00,
2013-01-08 08:02:00,26.4,-8.2,29.15,East,92,0.0,0.0,21,0.00,,,0.00,LWC V2.00 B2112,2013-01-08 13:02:00,
2013-01-08 08:07:00,27.3,-7.4,29.15,WSW,244,2.7,3.6,21,0.00,,,0.00,LWC V2.00 B2112,2013-01-08 13:07:00,
2013-01-08 08:12:00,26.1,-8.5,29.15,SW,231,2.2,3.6,21,0.00,,,0.00,LWC V2.00 B2112,2013-01-08 13:12:00,
2013-01-08 08:17:00,25.5,-8.9,29.15,ENE,75,4.5,5.4,21,0.00,,,0.00,LWC V2.00 B2112,2013-01-08 13:17:00,
2013-01-08 08:22:00,27.1,-7.6,29.15,ENE,78,4.0,4.9,21,0.00,,,0.00,LWC V2.00 B2112,2013-01-08 13:22:00,
2013-01-08 08:27:00,28.0,-6.8,29.15,ENE,59,4.9,4.9,21,0.00,,,0.00,LWC V2.00 B2112,2013-01-08 13:27:00,
2013-01-08 08:32:00,28.4,-6.5,29.15,ENE,60,0.0,5.4,21,0.00,,,0.00,LWC V2.00 B2112,2013-01-08 13:32:00,
2013-01-08 08:37:00,28.4,-6.5,29.15,East,84,4.9,5.4,21,0.00,,,0.00,LWC V2.00 B2112,2013-01-08 13:37:00,
2013-01-08 08:42:00,29.1,-6.9,29.15,NE,44,2.2,4.0,20,0.00,,,0.00,LWC V2.00 B2112,2013-01-08 13:42:00,
2013-01-08 08:47:00,29.5,-6.6,29.15,NE,55,2.2,3.1,20,0.00,,,0.00,LWC V2.00 B2112,2013-01-08 13:47:00,
2013-01-08 08:52:00,29.5,-6.6,29.15,East,83,3.6,4.9,20,0.00,,,0.00,LWC V2.00 B2112,2013-01-08 13:52:00,
2013-01-08 08:57:00,30.0,-6.1,29.15,ENE,78,3.1,4.0,20,0.00,,,0.00,LWC V2.00 B2112,2013-01-08 13:57:00,
2013-01-08 09:02:00,30.4,-5.8,29.15,South,172,0.0,4.0,20,0.00,,,0.00,LWC V2.00 B2112,2013-01-08 14:02:00,
2013-01-08 09:07:00,31.1,-5.2,29.15,ESE,116,3.1,3.1,20,0.00,,,0.00,LWC V2.00 B2112,2013-01-08 14:07:00,
2013-01-08 09:12:00,31.6,-4.8,29.15,East,94,0.0,0.0,20,0.00,,,0.00,LWC V2.00 B2112,2013-01-08 14:12:00,
2013-01-08 09:17:00,31.8,-4.6,29.15,SSW,210,0.0,4.0,20,0.00,,,0.00,LWC V2.00 B2112,2013-01-08 14:17:00,
2013-01-08 09:22:00,32.2,-4.3,29.15,ENE,61,4.0,4.0,20,0.00,,,0.00,LWC V2.00 B2112,2013-01-08 14:22:00,
2013-01-08 09:27:00,32.4,-4.2,29.15,SE,129,0.0,3.6,20,0.00,,,0.00,LWC V2.00 B2112,2013-01-08 14:27:00,
2013-01-08 09:32:00,32.9,-3.7,29.15,SE,125,0.0,0.0,20,0.00,,,0.00,LWC V2.00 B2112,2013-01-08 14:32:00,
2013-01-08 09:37:00,33.3,-3.4,29.15,NE,54,3.6,3.6,20,0.00,,,0.00,LWC V2.00 B2112,2013-01-08 14:37:00,
2013-01-08 09:42:00,33.8,-3.0,29.15,ENE,57,2.7,2.7,20,0.00,,,0.00,LWC V2.00 B2112,2013-01-08 14:42:00,
2013-01-08 09:47:00,33.6,-3.1,29.15,ENE,63,0.0,0.0,20,0.00,,,0.00,LWC V2.00 B2112,2013-01-08 14:47:00,
2013-01-08 09:52:00,33.8,-3.0,29.15,NE,55,4.5,4.5,20,0.00,,,0.00,LWC V2.00 B2112,2013-01-08 14:52:00,
2013-01-08 09:57:00,34.0,-2.8,29.15,NE,43,0.0,4.0,20,0.00,,,0.00,LWC V2.00 B2112,2013-01-08 14:57:00,
2013-01-08 10:02:00,34.5,-2.4,29.15,SSE,164,3.1,5.4,20,0.00,,,0.00,LWC V2.00 B2112,2013-01-08 15:02:00,
2013-01-08 10:07:00,35.1,-1.9,29.15,NNE,17,3.1,4.0,20,0.00,,,0.00,LWC V2.00 B2112,2013-01-08 15:07:00,
2013-01-08 10:12:00,35.6,-2.5,29.15,North,357,0.0,2.7,19,0.00,,,0.00,LWC V2.00 B2112,2013-01-08 15:12:00,
2013-01-08 10:17:00,36.0,-2.2,29.15,ENE,69,3.1,5.4,19,0.00,,,0.00,LWC V2.00 B2112,2013-01-08 15:17:00,
2013-01-08 10:22:00,36.5,-1.8,29.15,NNE,17,2.7,2.7,19,0.00,,,0.00,LWC V2.00 B2112,2013-01-08 15:22:00,
2013-01-08 10:27:00,36.9,-1.5,29.12,NW,325,3.6,3.6,19,0.00,,,0.00,LWC V2.00 B2112,2013-01-08 15:27:00,
2013-01-08 10:32:00,36.9,-1.5,29.12,NW,314,2.2,3.1,19,0.00,,,0.00,LWC V2.00 B2112,2013-01-08 15:32:00,
2013-01-08 10:37:00,37.0,-1.3,29.12,NNE,30,3.6,3.6,19,0.00,,,0.00,LWC V2.00 B2112,2013-01-08 15:37:00,
2013-01-08 10:42:00,37.4,-1.0,29.12,NE,50,3.1,3.1,19,0.00,,,0.00,LWC V2.00 B2112,2013-01-08 15:42:00,
2013-01-08 10:47:00,37.6,-0.9,29.12,NNE,13,0.0,3.1,19,0.00,,,0.00,LWC V2.00 B2112,2013-01-08 15:47:00,
2013-01-08 10:52:00,37.8,-0.7,29.12,North,10,4.0,4.0,19,0.00,,,0.00,LWC V2.00 B2112,2013-01-08 15:52:00,
2013-01-08 10:57:00,37.9,-0.6,29.12,NE,44,5.8,7.6,19,0.00,,,0.00,LWC V2.00 B2112,2013-01-08 15:57:00,
2013-01-08 11:02:00,38.1,-0.4,29.12,NE,46,5.8,5.8,19,0.00,,,0.00,LWC V2.00 B2112,2013-01-08 16:02:00,
2013-01-08 11:07:00,38.8,0.2,29.12,East,82,0.0,0.0,19,0.00,,,0.00,LWC V2.00 B2112,2013-01-08 16:07:00,
2013-01-08 11:12:00,39.7,-0.3,29.12,NE,45,3.1,4.0,18,0.00,,,0.00,LWC V2.00 B2112,2013-01-08 16:12:00,
2013-01-08 11:17:00,39.7,-0.3,29.12,NE,38,3.1,5.4,18,0.00,,,0.00,LWC V2.00 B2112,2013-01-08 16:17:00,
2013-01-08 11:22:00,39.9,-0.1,29.12,NNW,327,2.2,3.6,18,0.00,,,0.00,LWC V2.00 B2112,2013-01-08 16:22:00,
2013-01-08 11:27:00,40.3,0.2,29.12,SW,236,0.0,0.0,18,0.00,,,0.00,LWC V2.00 B2112,2013-01-08 16:27:00,
2013-01-08 11:32:00,40.3,0.2,29.12,West,280,2.7,2.7,18,0.00,,,0.00,LWC V2.00 B2112,2013-01-08 16:32:00,
2013-01-08 11:37:00,40.1,0.0,29.12,NW,310,2.7,3.1,18,0.00,,,0.00,LWC V2.00 B2112,2013-01-08 16:37:00,
2013-01-08 11:42:00,40.1,0.0,29.12,NNE,25,2.2,2.7,18,0.00,,,0.00,LWC V2.00 B2112,2013-01-08 16:42:00,
2013-01-08 11:47:00,40.5,0.3,29.12,NE,41,0.0,0.0,18,0.00,,,0.00,LWC V2.00 B2112,2013-01-08 16:47:00,
2013-01-08 11:52:00,40.3,0.2,29.12,SSW,210,0.0,3.6,18,0.00,,,0.00,LWC V2.00 B2112,2013-01-08 16:52:00,
2013-01-08 11:57:00,40.5,0.3,29.12,NW,316,2.2,3.6,18,0.00,,,0.00,LWC V2.00 B2112,2013-01-08 16:57:00,
2013-01-08 12:02:00,40.5,0.3,29.12,North,353,2.7,4.9,18,0.00,,,0.00,LWC V2.00 B2112,2013-01-08 17:02:00,
2013-01-08 12:07:00,40.5,0.3,29.12,NW,305,2.7,2.7,18,0.00,,,0.00,LWC V2.00 B2112,2013-01-08 17:07:00,
2013-01-08 12:12:00,40.6,0.5,29.09,WSW,243,2.7,2.7,18,0.00,,,0.00,LWC V2.00 B2112,2013-01-08 17:12:00,
2013-01-08 12:18:00,40.6,0.5,29.09,West,264,3.1,4.0,18,0.00,,,0.00,LWC V2.00 B2112,2013-01-08 17:18:00,
2013-01-08 12:23:00,40.8,0.6,29.09,SW,217,2.7,5.4,18,0.00,,,0.00,LWC V2.00 B2112,2013-01-08 17:23:00,
2013-01-08 12:28:00,41.0,0.8,29.09,West,269,2.7,4.0,18,0.00,,,0.00,LWC V2.00 B2112,2013-01-08 17:28:00,
2013-01-08 12:33:00,41.0,0.8,29.09,SSW,209,2.7,3.6,18,0.00,,,0.00,LWC V2.00 B2112,2013-01-08 17:33:00,
2013-01-08 12:38:00,40.8,0.6,29.09,WSW,239,3.1,4.9,18,0.00,,,0.00,LWC V2.00 B2112,2013-01-08 17:38:00,
2013-01-08 12:43:00,40.8,0.6,29.09,WSW,237,4.0,4.0,18,0.00,,,0.00,LWC V2.00 B2112,2013-01-08 17:43:00,
2013-01-08 12:48:00,40.8,0.6,29.09,West,281,2.2,4.0,18,0.00,,,0.00,LWC V2.00 B2112,2013-01-08 17:48:00,
2013-01-08 12:53:00,41.0,0.8,29.09,WSW,242,2.7,3.6,18,0.00,,,0.00,LWC V2.00 B2112,2013-01-08 17:53:00,
2013-01-08 12:58:00,41.4,1.1,29.09,WSW,243,3.6,4.0,18,0.00,,,0.00,LWC V2.00 B2112,2013-01-08 17:58:00,
2013-01-08 13:03:00,41.5,1.2,29.09,WSW,244,0.0,3.6,18,0.00,,,0.00,LWC V2.00 B2112,2013-01-08 18:03:00,
2013-01-08 13:08:00,41.5,1.2,29.09,WSW,248,2.2,3.6,18,0.00,,,0.00,LWC V2.00 B2112,2013-01-08 18:08:00,
2013-01-08 13:13:00,41.7,1.4,29.09,WSW,238,2.2,4.5,18,0.00,,,0.00,LWC V2.00 B2112,2013-01-08 18:13:00,
2013-01-08 13:18:00,41.9,1.5,29.09,West,281,3.1,4.0,18,0.00,,,0.00,LWC V2.00 B2112,2013-01-08 18:18:00,
2013-01-08 13:23:00,41.9,1.5,29.09,NW,307,2.2,3.1,18,0.00,,,0.00,LWC V2.00 B2112,2013-01-08 18:23:00,
2013-01-08 13:28:00,41.9,1.5,29.09,WSW,248,0.0,4.0,18,0.00,,,0.00,LWC V2.00 B2112,2013-01-08 18:28:00,
2013-01-08 13:33:00,42.4,2.0,29.09,WSW,252,0.0,0.0,18,0.00,,,0.00,LWC V2.00 B2112,2013-01-08 18:33:00,
2013-01-08 13:38:00,42.8,2.3,29.09,NW,310,3.6,3.6,18,0.00,,,0.00,LWC V2.00 B2112,2013-01-08 18:38:00,
2013-01-08 13:43:00,42.8,2.3,29.09,WNW,302,0.0,0.0,18,0.00,,,0.00,LWC V2.00 B2112,2013-01-08 18:43:00,
2013-01-08 13:48:00,43.0,2.4,29.09,SSW,198,0.0,0.0,18,0.00,,,0.00,LWC V2.00 B2112,2013-01-08 18:48:00,
2013-01-08 13:53:00,43.3,2.7,29.09,North,357,2.2,3.1,18,0.00,,,0.00,LWC V2.00 B2112,2013-01-08 18:53:00,
2013-01-08 13:58:00,43.5,2.9,29.09,NNW,333,0.0,0.0,18,0.00,,,0.00,LWC V2.00 B2112,2013-01-08 18:58:00,
2013-01-08 14:03:00,43.7,3.0,29.09,North,353,0.0,0.0,18,0.00,,,0.00,LWC V2.00 B2112,2013-01-08 19:03:00,
2013-01-08 14:08:00,44.1,3.3,29.09,SW,234,0.0,2.7,18,0.00,,,0.00,LWC V2.00 B2112,2013-01-08 19:08:00,
2013-01-08 14:13:00,44.1,3.3,29.09,NNE,17,0.0,0.0,18,0.00,,,0.00,LWC V2.00 B2112,2013-01-08 19:13:00,
2013-01-08 14:18:00,44.4,3.6,29.09,West,276,0.0,0.0,18,0.00,,,0.00,LWC V2.00 B2112,2013-01-08 19:18:00,
2013-01-08 14:23:00,44.4,3.6,29.09,West,276,0.0,0.0,18,0.00,,,0.00,LWC V2.00 B2112,2013-01-08 19:23:00,
2013-01-08 14:28:00,44.2,3.5,29.09,SW,225,0.0,0.0,18,0.00,,,0.00,LWC V2.00 B2112,2013-01-08 19:28:00,
2013-01-08 14:33:00,43.5,2.9,29.09,ESE,116,2.7,3.1,18,0.00,,,0.00,LWC V2.00 B2112,2013-01-08 19:33:00,
2013-01-08 14:38:00,43.0,2.4,29.09,NW,310,3.1,3.1,18,0.00,,,0.00,LWC V2.00 B2112,2013-01-08 19:38:00,
2013-01-08 14:43:00,42.6,2.1,29.09,WNW,299,0.0,3.1,18,0.00,,,0.00,LWC V2.00 B2112,2013-01-08 19:43:00,
2013-01-08 14:48:00,43.3,2.7,29.09,South,177,0.0,3.6,18,0.00,,,0.04,LWC V2.00 B2112,2013-01-08 19:48:00,
2013-01-08 14:53:00,44.2,3.5,29.09,West,264,4.0,4.0,18,0.00,,,0.04,LWC V2.00 B2112,2013-01-08 19:53:00,
2013-01-08 14:58:00,44.8,2.7,29.09,WSW,242,3.1,3.1,17,0.00,,,0.04,LWC V2.00 B2112,2013-01-08 19:58:00,
2013-01-08 15:03:00,45.1,3.0,29.09,WSW,245,0.0,2.2,17,0.00,,,0.04,LWC V2.00 B2112,2013-01-08 20:03:00,
2013-01-08 15:08:00,45.9,3.6,29.09,SW,229,2.7,3.1,17,0.00,,,0.04,LWC V2.00 B2112,2013-01-08 20:08:00,
2013-01-08 15:13:00,46.0,3.7,29.09,NW,326,0.0,3.1,17,0.00,,,0.04,LWC V2.00 B2112,2013-01-08 20:13:00,
2013-01-08 15:18:00,45.9,3.6,29.09,WSW,258,3.1,3.6,17,0.00,,,0.04,LWC V2.00 B2112,2013-01-08 20:18:00,
2013-01-08 15:23:00,45.3,3.1,29.09,WSW,243,2.2,3.1,17,0.00,,,0.04,LWC V2.00 B2112,2013-01-08 20:23:00,
2013-01-08 15:28:00,45.1,3.0,29.09,SSW,198,2.7,4.0,17,0.00,,,0.04,LWC V2.00 B2112,2013-01-08 20:28:00,
2013-01-08 15:33:00,45.0,2.8,29.09,West,281,0.0,4.9,17,0.00,,,0.04,LWC V2.00 B2112,2013-01-08 20:33:00,
2013-01-08 15:38:00,44.8,2.7,29.09,West,262,3.1,4.9,17,0.00,,,0.04,LWC V2.00 B2112,2013-01-08 20:38:00,
2013-01-08 15:43:00,44.2,3.5,29.09,WSW,252,0.0,0.0,18,0.00,,,0.04,LWC V2.00 B2112,2013-01-08 20:43:00,
2013-01-08 15:48:00,44.2,3.5,29.09,WNW,282,0.0,2.7,18,0.00,,,0.04,LWC V2.00 B2112,2013-01-08 20:48:00,
2013-01-08 15:53:00,43.9,3.2,29.09,NW,312,0.0,0.0,18,0.00,,,0.04,LWC V2.00 B2112,2013-01-08 20:53:00,
2013-01-08 15:58:00,43.3,2.7,29.09,West,266,2.7,2.7,18,0.00,,,0.04,LWC V2.00 B2112,2013-01-08 20:58:00,
2013-01-08 16:03:00,42.8,2.3,29.09,NNE,13,0.0,0.0,18,0.00,,,0.04,LWC V2.00 B2112,2013-01-08 21:03:00,
2013-01-08 16:08:00,42.1,1.7,29.09,North,8,0.0,0.0,18,0.00,,,0.04,LWC V2.00 B2112,2013-01-08 21:08:00,
2013-01-08 16:13:00,41.4,1.1,29.09,ENE,68,0.0,0.0,18,0.00,,,0.04,LWC V2.00 B2112,2013-01-08 21:13:00,
2013-01-08 16:18:00,40.6,0.5,29.09,ENE,59,3.1,3.6,18,0.00,,,0.04,LWC V2.00 B2112,2013-01-08 21:18:00,
2013-01-08 16:23:00,39.6,-0.4,29.09,ENE,60,3.1,3.1,18,0.00,,,0.04,LWC V2.00 B2112,2013-01-08 21:23:00,
2013-01-08 16:28:00,38.7,0.0,29.09,ENE,60,4.0,4.0,19,0.00,,,0.04,LWC V2.00 B2112,2013-01-08 21:28:00,
2013-01-08 16:33:00,37.9,-0.6,29.09,NE,55,3.1,3.6,19,0.00,,,0.04,LWC V2.00 B2112,2013-01-08 21:33:00,
2013-01-08 16:38:00,37.6,-0.9,29.09,NE,52,3.1,3.6,19,0.00,,,0.04,LWC V2.00 B2112,2013-01-08 21:38:00,
2013-01-08 16:43:00,37.4,-1.0,29.09,East,79,3.6,3.6,19,0.00,,,0.04,LWC V2.00 B2112,2013-01-08 21:43:00,
2013-01-08 16:48:00,37.4,-1.0,29.09,East,82,0.0,3.1,19,0.00,,,0.04,LWC V2.00 B2112,2013-01-08 21:48:00,
2013-01-08 16:53:00,36.9,-1.5,29.09,East,82,0.0,0.0,19,0.00,,,0.04,LWC V2.00 B2112,2013-01-08 21:53:00,
2013-01-08 16:58:00,36.7,-1.6,29.12,East,82,0.0,0.0,19,0.00,,,0.04,LWC V2.00 B2112,2013-01-08 21:58:00,
2013-01-08 17:03:00,36.3,-1.9,29.12,ENE,65,2.7,3.6,19,0.00,,,0.04,LWC V2.00 B2112,2013-01-08 22:03:00,
2013-01-08 17:08:00,35.8,-2.4,29.12,ENE,65,0.0,0.0,19,0.00,,,0.04,LWC V2.00 B2112,2013-01-08 22:08:00,
2013-01-08 17:12:00,35.6,-2.5,29.12,NE,37,0.0,0.0,19,0.00,,,0.04,LWC V2.00 B2112,2013-01-08 22:12:00,
2013-01-08 17:17:00,35.1,-1.9,29.12,NE,41,0.0,0.0,20,0.00,,,0.04,LWC V2.00 B2112,2013-01-08 22:17:00,
2013-01-08 17:22:00,34.9,-2.1,29.12,NE,44,3.1,4.0,20,0.00,,,0.04,LWC V2.00 B2112,2013-01-08 22:22:00,
2013-01-08 17:27:00,34.5,-2.4,29.12,ENE,57,4.0,4.0,20,0.00,,,0.04,LWC V2.00 B2112,2013-01-08 22:27:00,
2013-01-08 17:31:00,34.5,-2.4,29.12,NE,55,0.0,4.0,20,0.00,,,0.04,LWC V2.00 B2112,2013-01-08 22:31:00,
2013-01-08 17:36:00,34.5,-2.4,29.12,NNE,33,2.2,4.0,20,0.00,,,0.04,LWC V2.00 B2112,2013-01-08 22:36:00,
2013-01-08 17:41:00,34.5,-2.4,29.12,NE,44,0.0,0.0,20,0.00,,,0.04,LWC V2.00 B2112,2013-01-08 22:41:00,
2013-01-08 17:46:00,34.0,-2.8,29.12,NNE,27,2.7,3.1,20,0.00,,,0.04,LWC V2.00 B2112,2013-01-08 22:46:00,
2013-01-08 17:51:00,33.8,-3.0,29.12,NE,34,2.7,2.7,20,0.00,,,0.04,LWC V2.00 B2112,2013-01-08 22:51:00,
2013-01-08 17:56:00,34.0,-2.8,29.12,North,9,2.2,4.0,20,0.00,,,0.04,LWC V2.00 B2112,2013-01-08 22:56:00,
2013-01-08 18:01:00,34.0,-2.8,29.12,North,350,3.6,4.0,20,0.00,,,0.04,LWC V2.00 B2112,2013-01-08 23:01:00,
2013-01-08 18:06:00,33.6,-3.1,29.12,NW,319,0.0,0.0,20,0.00,,,0.04,LWC V2.00 B2112,2013-01-08 23:06:00,
2013-01-08 18:11:00,32.9,-3.7,29.12,NNE,25,3.6,3.6,20,0.00,,,0.04,LWC V2.00 B2112,2013-01-08 23:11:00,
2013-01-08 18:16:00,32.9,-3.7,29.12,NNW,348,2.2,3.1,20,0.00,,,0.04,LWC V2.00 B2112,2013-01-08 23:16:00,
2013-01-08 18:21:00,33.1,-3.6,29.12,NE,41,0.0,3.1,20,0.00,,,0.04,LWC V2.00 B2112,2013-01-08 23:21:00,
2013-01-08 18:26:00,32.7,-3.9,29.15,NE,41,0.0,0.0,20,0.00,,,0.04,LWC V2.00 B2112,2013-01-08 23:26:00,
2013-01-08 18:31:00,32.2,-4.3,29.15,NNW,341,3.1,3.1,20,0.00,,,0.04,LWC V2.00 B2112,2013-01-08 23:31:00,
2013-01-08 18:36:00,32.0,-4.5,29.15,NE,40,2.2,2.2,20,0.00,,,0.04,LWC V2.00 B2112,2013-01-08 23:36:00,
2013-01-08 18:41:00,31.8,-4.6,29.15,North,353,0.0,2.2,20,0.00,,,0.04,LWC V2.00 B2112,2013-01-08 23:41:00,
2013-01-08 18:46:00,31.6,-4.8,29.15,North,353,0.0,0.0,20,0.00,,,0.04,LWC V2.00 B2112,2013-01-08 23:46:00,
2013-01-08 18:51:00,31.3,-5.1,29.15,NE,34,0.0,0.0,20,0.00,,,0.04,LWC V2.00 B2112,2013-01-08 23:51:00,
2013-01-08 18:56:00,31.1,-5.2,29.15,ENE,68,0.0,2.2,20,0.00,,,0.04,LWC V2.00 B2112,2013-01-08 23:56:00,
2013-01-08 19:01:00,30.7,-5.5,29.15,ENE,68,0.0,0.0,20,0.00,,,0.04,LWC V2.00 B2112,2013-01-09 00:01:00,
2013-01-08 19:06:00,30.4,-5.8,29.15,ENE,68,0.0,0.0,20,0.00,,,0.04,LWC V2.00 B2112,2013-01-09 00:06:00,
2013-01-08 19:11:00,30.2,-6.0,29.15,ENE,68,3.1,3.1,20,0.00,,,0.04,LWC V2.00 B2112,2013-01-09 00:11:00,
2013-01-08 19:16:00,30.2,-6.0,29.15,ENE,68,2.7,3.1,20,0.00,,,0.04,LWC V2.00 B2112,2013-01-09 00:16:00,
2013-01-08 19:21:00,30.2,-6.0,29.15,ENE,68,2.7,2.7,20,0.00,,,0.04,LWC V2.00 B2112,2013-01-09 00:21:00,
2013-01-08 19:26:00,30.2,-6.0,29.15,ENE,68,2.7,2.7,20,0.00,,,0.04,LWC V2.00 B2112,2013-01-09 00:26:00,
2013-01-08 19:31:00,30.4,-5.8,29.15,ENE,68,3.1,3.1,20,0.00,,,0.04,LWC V2.00 B2112,2013-01-09 00:31:00,
2013-01-08 19:36:00,30.2,-6.0,29.15,ENE,68,2.7,3.1,20,0.00,,,0.04,LWC V2.00 B2112,2013-01-09 00:36:00,
2013-01-08 19:41:00,30.2,-6.0,29.15,ENE,71,3.6,3.6,20,0.00,,,0.04,LWC V2.00 B2112,2013-01-09 00:41:00,
2013-01-08 19:46:00,30.2,-6.0,29.15,ENE,71,3.1,3.1,20,0.00,,,0.04,LWC V2.00 B2112,2013-01-09 00:46:00,
2013-01-08 19:51:00,30.2,-6.0,29.15,ENE,71,0.0,2.7,20,0.00,,,0.04,LWC V2.00 B2112,2013-01-09 00:51:00,
2013-01-08 19:56:00,30.0,-6.1,29.15,ENE,71,3.1,3.1,20,0.00,,,0.04,LWC V2.00 B2112,2013-01-09 00:56:00,
2013-01-08 20:01:00,29.8,-6.3,29.15,ENE,71,2.2,2.7,20,0.00,,,0.04,LWC V2.00 B2112,2013-01-09 01:01:00,
2013-01-08 20:06:00,29.8,-6.3,29.15,ENE,71,0.0,0.0,20,0.00,,,0.04,LWC V2.00 B2112,2013-01-09 01:06:00,
2013-01-08 20:11:00,29.8,-6.3,29.18,ENE,71,0.0,0.0,20,0.00,,,0.04,LWC V2.00 B2112,2013-01-09 01:11:00,
2013-01-08 20:16:00,29.7,-6.4,29.18,ENE,71,0.0,0.0,20,0.00,,,0.04,LWC V2.00 B2112,2013-01-09 01:16:00,
2013-01-08 20:21:00,29.5,-6.6,29.18,ENE,68,2.7,3.1,20,0.00,,,0.04,LWC V2.00 B2112,2013-01-09 01:21:00,
2013-01-08 20:26:00,29.3,-6.7,29.15,ENE,68,0.0,0.0,20,0.00,,,0.04,LWC V2.00 B2112,2013-01-09 01:26:00,
2013-01-08 20:31:00,29.1,-6.9,29.15,ENE,68,0.0,0.0,20,0.00,,,0.04,LWC V2.00 B2112,2013-01-09 01:31:00,
2013-01-08 20:36:00,29.1,-6.9,29.15,ENE,68,0.0,0.0,20,0.00,,,0.04,LWC V2.00 B2112,2013-01-09 01:36:00,
2013-01-08 20:41:00,28.9,-7.0,29.18,ENE,68,0.0,0.0,20,0.00,,,0.04,LWC V2.00 B2112,2013-01-09 01:41:00,
2013-01-08 20:46:00,28.6,-7.3,29.18,ENE,68,0.0,0.0,20,0.00,,,0.04,LWC V2.00 B2112,2013-01-09 01:46:00,
2013-01-08 20:51:00,28.2,-6.6,29.18,ENE,68,0.0,0.0,21,0.00,,,0.04,LWC V2.00 B2112,2013-01-09 01:51:00,
2013-01-08 20:56:00,28.0,-6.8,29.15,ENE,68,0.0,0.0,21,0.00,,,0.04,LWC V2.00 B2112,2013-01-09 01:56:00,
2013-01-08 21:01:00,28.0,-6.8,29.15,ENE,68,0.0,0.0,21,0.00,,,0.04,LWC V2.00 B2112,2013-01-09 02:01:00,
2013-01-08 21:06:00,27.9,-6.9,29.15,ENE,68,0.0,0.0,21,0.00,,,0.04,LWC V2.00 B2112,2013-01-09 02:06:00,
2013-01-08 21:11:00,27.7,-7.1,29.15,ENE,68,0.0,0.0,21,0.00,,,0.04,LWC V2.00 B2112,2013-01-09 02:11:00,
2013-01-08 21:16:00,27.5,-7.2,29.15,ENE,68,0.0,0.0,21,0.00,,,0.04,LWC V2.00 B2112,2013-01-09 02:16:00,
2013-01-08 21:21:00,27.3,-7.4,29.15,ENE,68,0.0,0.0,21,0.00,,,0.04,LWC V2.00 B2112,2013-01-09 02:21:00,
2013-01-08 21:26:00,27.1,-7.6,29.15,ENE,68,0.0,0.0,21,0.00,,,0.04,LWC V2.00 B2112,2013-01-09 02:26:00,
2013-01-08 21:31:00,27.1,-7.6,29.15,ENE,68,0.0,0.0,21,0.00,,,0.04,LWC V2.00 B2112,2013-01-09 02:31:00,
2013-01-08 21:36:00,27.1,-7.6,29.15,ENE,68,0.0,0.0,21,0.00,,,0.04,LWC V2.00 B2112,2013-01-09 02:36:00,
2013-01-08 21:41:00,27.1,-7.6,29.15,ENE,68,0.0,0.0,21,0.00,,,0.04,LWC V2.00 B2112,2013-01-09 02:41:00,
2013-01-08 21:46:00,27.3,-7.4,29.15,ENE,68,0.0,0.0,21,0.00,,,0.04,LWC V2.00 B2112,2013-01-09 02:46:00,
2013-01-08 21:52:00,27.1,-7.6,29.15,ENE,68,0.0,0.0,21,0.00,,,0.04,LWC V2.00 B2112,2013-01-09 02:52:00,
2013-01-08 21:57:00,27.1,-7.6,29.15,ENE,69,0.0,0.0,21,0.00,,,0.04,LWC V2.00 B2112,2013-01-09 02:57:00,
2013-01-08 22:02:00,27.0,-7.7,29.15,ENE,68,0.0,0.0,21,0.00,,,0.04,LWC V2.00 B2112,2013-01-09 03:02:00,
2013-01-08 22:07:00,27.0,-7.7,29.15,ENE,68,0.0,0.0,21,0.00,,,0.04,LWC V2.00 B2112,2013-01-09 03:07:00,
2013-01-08 22:12:00,27.0,-7.7,29.15,ENE,68,0.0,0.0,21,0.00,,,0.04,LWC V2.00 B2112,2013-01-09 03:12:00,
2013-01-08 22:17:00,27.0,-7.7,29.15,ENE,68,0.0,0.0,21,0.00,,,0.04,LWC V2.00 B2112,2013-01-09 03:17:00,
2013-01-08 22:22:00,26.4,-8.2,29.15,ENE,68,0.0,0.0,21,0.00,,,0.04,LWC V2.00 B2112,2013-01-09 03:22:00,
2013-01-08 22:27:00,26.2,-8.3,29.18,ENE,68,0.0,0.0,21,0.00,,,0.04,LWC V2.00 B2112,2013-01-09 03:27:00,
2013-01-08 22:32:00,26.2,-8.3,29.18,ENE,68,0.0,0.0,21,0.00,,,0.04,LWC V2.00 B2112,2013-01-09 03:32:00,
2013-01-08 22:37:00,26.2,-8.3,29.18,ENE,68,0.0,0.0,21,0.00,,,0.04,LWC V2.00 B2112,2013-01-09 03:37:00,
2013-01-08 22:42:00,26.2,-8.3,29.18,ENE,68,0.0,0.0,21,0.00,,,0.04,LWC V2.00 B2112,2013-01-09 03:42:00,
2013-01-08 22:47:00,26.4,-8.2,29.18,ENE,68,0.0,0.0,21,0.00,,,0.04,LWC V2.00 B2112,2013-01-09 03:47:00,
2013-01-08 22:52:00,26.8,-7.9,29.18,ENE,68,0.0,0.0,21,0.00,,,0.04,LWC V2.00 B2112,2013-01-09 03:52:00,
2013-01-08 22:57:00,27.0,-7.7,29.18,ENE,68,0.0,0.0,21,0.00,,,0.04,LWC V2.00 B2112,2013-01-09 03:57:00,
2013-01-08 23:02:00,26.8,-7.9,29.18,ENE,68,0.0,0.0,21,0.00,,,0.04,LWC V2.00 B2112,2013-01-09 04:02:00,
2013-01-08 23:07:00,26.2,-8.3,29.18,ENE,68,0.0,0.0,21,0.00,,,0.04,LWC V2.00 B2112,2013-01-09 04:07:00,
2013-01-08 23:12:00,26.1,-8.5,29.18,ENE,68,0.0,0.0,21,0.00,,,0.04,LWC V2.00 B2112,2013-01-09 04:12:00,
2013-01-08 23:17:00,26.1,-8.5,29.18,ENE,68,0.0,0.0,21,0.00,,,0.04,LWC V2.00 B2112,2013-01-09 04:17:00,
2013-01-08 23:22:00,26.1,-8.5,29.18,ENE,68,0.0,0.0,21,0.00,,,0.04,LWC V2.00 B2112,2013-01-09 04:22:00,
2013-01-08 23:27:00,25.9,-8.6,29.18,ENE,68,0.0,0.0,21,0.00,,,0.04,LWC V2.00 B2112,2013-01-09 04:27:00,
2013-01-08 23:32:00,25.7,-8.8,29.18,ENE,68,0.0,0.0,21,0.00,,,0.04,LWC V2.00 B2112,2013-01-09 04:32:00,
2013-01-08 23:37:00,25.7,-8.8,29.18,ENE,68,0.0,0.0,21,0.00,,,0.04,LWC V2.00 B2112,2013-01-09 04:37:00,
2013-01-08 23:42:00,25.7,-8.8,29.18,ENE,68,0.0,0.0,21,0.00,,,0.04,LWC V2.00 B2112,2013-01-09 04:42:00,
2013-01-08 23:47:00,25.7,-8.8,29.18,ENE,68,0.0,0.0,21,0.00,,,0.04,LWC V2.00 B2112,2013-01-09 04:47:00,
2013-01-08 23:52:00,25.7,-8.8,29.18,ENE,68,0.0,0.0,21,0.00,,,0.04,LWC V2.00 B2112,2013-01-09 04:52:00,
2013-01-08 23:57:00,25.5,-8.9,29.18,ENE,68,0.0,0.0,21,0.00,,,0.04,LWC V2.00 B2112,2013-01-09 04:57:00,